createdAt,value
2018-12-02T00:04:14.320Z,11.65
2018-12-02T00:10:09.319Z,10.88
2018-12-02T00:16:04.307Z,10.46
2018-12-02T00:21:59.319Z,10.97
2018-12-02T00:27:54.315Z,11.4
2018-12-02T00:33:49.333Z,11.08
2018-12-02T00:39:44.333Z,11.63
2018-12-02T00:45:39.341Z,10.82
2018-12-02T00:51:34.369Z,11.83
2018-12-02T00:57:29.328Z,11.17
2018-12-02T01:03:24.328Z,10.24
2018-12-02T01:09:19.357Z,9.87
2018-12-02T01:15:14.353Z,10.37
2018-12-02T01:21:09.408Z,11.29
2018-12-02T01:27:04.342Z,11.91
2018-12-02T01:32:59.361Z,10.48
2018-12-02T01:38:54.398Z,11.08
2018-12-02T01:44:49.361Z,12.88
2018-12-02T01:50:44.360Z,11.98
2018-12-02T01:56:39.397Z,10.76
2018-12-02T02:02:34.403Z,12.57
2018-12-02T02:08:29.371Z,13.53
2018-12-02T02:14:24.376Z,13.31
2018-12-02T02:20:19.441Z,12.4
2018-12-02T02:26:14.386Z,10.88
2018-12-02T02:32:09.384Z,11.55
2018-12-02T02:38:04.439Z,11.86
2018-12-02T02:43:59.383Z,13.07
2018-12-02T02:49:54.431Z,15.94
2018-12-02T02:55:49.446Z,15.59
2018-12-02T03:01:44.409Z,13.25
2018-12-02T03:07:39.414Z,12.81
2018-12-02T03:13:34.419Z,12.71
2018-12-02T03:19:29.400Z,13.03
2018-12-02T03:25:24.412Z,11.44
2018-12-02T03:31:19.454Z,10.61
2018-12-02T03:37:14.452Z,12.4
2018-12-02T03:43:09.461Z,12.25
2018-12-02T03:49:04.411Z,11.05
2018-12-02T03:54:59.437Z,9.72
2018-12-02T04:00:54.496Z,12.93
2018-12-02T04:06:49.423Z,12.43
2018-12-02T04:12:44.424Z,15.52
2018-12-02T04:18:39.435Z,16.06
2018-12-02T04:24:34.469Z,13.22
2018-12-02T04:30:29.439Z,10.47
2018-12-02T04:36:24.432Z,8.75
2018-12-02T04:42:19.518Z,9.09
2018-12-02T04:48:14.463Z,11.04
2018-12-02T04:54:09.476Z,12.42
2018-12-02T05:00:04.481Z,14.27
2018-12-02T05:05:59.464Z,12.7
2018-12-02T05:11:54.456Z,14.54
2018-12-02T05:17:49.473Z,12.69
2018-12-02T05:23:44.461Z,11.41
2018-12-02T05:29:39.489Z,11.18
2018-12-02T05:35:34.499Z,12.26
2018-12-02T05:41:29.501Z,11.06
2018-12-02T05:47:24.544Z,11.38
2018-12-02T05:53:19.481Z,10.62
2018-12-02T05:59:14.488Z,10.99
2018-12-02T06:05:09.491Z,12.48
2018-12-02T06:11:04.518Z,14.37
2018-12-02T06:16:59.572Z,15.46
2018-12-02T06:22:54.533Z,14.21
2018-12-02T06:28:49.510Z,14.14
2018-12-02T06:34:44.520Z,11.95
2018-12-02T06:40:39.566Z,12.98
2018-12-02T06:46:34.572Z,15.33
2018-12-02T06:52:29.520Z,13.07
2018-12-02T06:58:24.536Z,11.3
2018-12-02T07:04:19.551Z,10.6
2018-12-02T07:10:14.529Z,10.74
2018-12-02T07:16:09.538Z,12.62
2018-12-02T07:22:04.599Z,13.49
2018-12-02T07:27:59.582Z,15.69
2018-12-02T07:33:54.550Z,16.93
2018-12-02T07:39:49.532Z,20.88
2018-12-02T07:45:44.547Z,21.25
2018-12-02T07:51:39.557Z,18.9
2018-12-02T07:57:34.591Z,18.65
2018-12-02T08:03:29.570Z,18.22
2018-12-02T08:09:24.597Z,19.39
2018-12-02T08:15:19.563Z,19.65
2018-12-02T08:21:14.602Z,18.71
2018-12-02T08:27:09.564Z,23.77
2018-12-02T08:33:04.567Z,26.32
2018-12-02T08:38:59.571Z,23.58
2018-12-02T08:44:54.570Z,22.51
2018-12-02T08:50:49.569Z,21.6
2018-12-02T08:56:44.577Z,22.77
2018-12-02T09:02:39.602Z,21.02
2018-12-02T09:08:34.587Z,21.36
2018-12-02T09:14:29.596Z,23.28
2018-12-02T09:20:24.587Z,23.77
2018-12-02T09:26:19.596Z,21.52
2018-12-02T09:32:14.594Z,23.65
2018-12-02T09:38:09.619Z,23.14
2018-12-02T09:44:04.609Z,25.85
2018-12-02T09:49:59.610Z,25.38
2018-12-02T09:55:54.624Z,28.03
2018-12-02T10:01:49.615Z,28.46
2018-12-02T10:07:44.650Z,28.46
2018-12-02T10:13:39.636Z,29.86
2018-12-02T10:19:34.638Z,28.2
2018-12-02T10:25:29.644Z,30.24
2018-12-02T10:31:24.661Z,35.14
2018-12-02T10:37:19.690Z,44.38
2018-12-02T10:43:14.638Z,49.77
2018-12-02T10:49:09.690Z,59.7
2018-12-02T10:55:04.688Z,45.77
2018-12-02T11:00:59.641Z,43.24
2018-12-02T11:06:54.676Z,47.98
2018-12-02T11:12:49.691Z,48.73
2018-12-02T11:18:44.720Z,49.72
2018-12-02T11:24:39.652Z,49.32
2018-12-02T11:30:34.659Z,42.1
2018-12-02T11:36:29.676Z,51.93
2018-12-02T11:42:24.709Z,65.44
2018-12-02T11:48:19.669Z,43.55
2018-12-02T11:54:14.678Z,46.82
2018-12-02T12:00:09.704Z,49.79
2018-12-02T12:06:04.704Z,52.99
2018-12-02T12:11:59.695Z,54.75
2018-12-02T12:17:54.707Z,54.04
2018-12-02T12:23:49.676Z,50.8
2018-12-02T12:29:44.703Z,48.21
2018-12-02T12:35:39.713Z,48.34
2018-12-02T12:41:34.709Z,48.63
2018-12-02T12:47:29.726Z,44.24
2018-12-02T12:53:24.768Z,41.73
2018-12-02T12:59:19.713Z,39.32
2018-12-02T13:05:14.717Z,41.23
2018-12-02T13:11:09.753Z,41.74
2018-12-02T13:17:04.729Z,43.31
2018-12-02T13:22:59.732Z,49.91
2018-12-02T13:28:54.750Z,49.23
2018-12-02T13:34:49.737Z,49.84
2018-12-02T13:40:44.754Z,49.53
2018-12-02T13:46:39.772Z,48.79
2018-12-02T13:52:34.760Z,44.17
2018-12-02T13:58:29.738Z,45.12
2018-12-02T14:04:24.791Z,52.03
2018-12-02T14:10:19.749Z,45.26
2018-12-02T14:16:14.789Z,48.81
2018-12-02T14:22:09.790Z,51.46
2018-12-02T14:28:04.784Z,51.79
2018-12-02T14:33:59.776Z,48.42
2018-12-02T14:39:54.793Z,41.46
2018-12-02T14:45:49.812Z,39.86
2018-12-02T14:51:44.773Z,38.36
2018-12-02T14:57:39.800Z,36.27
2018-12-02T15:03:34.788Z,37.44
2018-12-02T15:09:29.792Z,41
2018-12-02T15:15:24.794Z,39.68
2018-12-02T15:21:19.798Z,39.06
2018-12-02T15:27:14.813Z,38.77
2018-12-02T15:33:09.803Z,41.61
2018-12-02T15:39:04.819Z,41.85
2018-12-02T15:44:59.853Z,45.6
2018-12-02T15:50:54.861Z,43.99
2018-12-02T15:56:49.819Z,40.15
2018-12-02T16:02:44.867Z,41.87
2018-12-02T16:08:39.834Z,41.69
2018-12-02T16:14:34.855Z,40.32
2018-12-02T16:20:29.873Z,41.55
2018-12-02T16:26:24.869Z,42.83
2018-12-02T16:32:19.878Z,42.87
2018-12-02T16:38:14.867Z,43.39
2018-12-02T16:44:09.881Z,42.76
2018-12-02T16:50:04.866Z,44.91
2018-12-02T16:55:59.893Z,47.12
2018-12-02T17:01:54.850Z,48.18
2018-12-02T17:07:49.862Z,50.69
2018-12-02T17:13:44.867Z,47.82
2018-12-02T17:19:39.914Z,48.74
2018-12-02T17:25:34.887Z,47.84
2018-12-02T17:31:29.872Z,47.33
2018-12-02T17:37:24.947Z,41.82
2018-12-02T17:43:19.910Z,45.77
2018-12-02T17:49:14.943Z,44.63
2018-12-02T17:55:09.876Z,41.47
2018-12-02T18:01:04.895Z,42.27
2018-12-02T18:06:59.949Z,42.26
2018-12-02T18:12:54.907Z,42.31
2018-12-02T18:18:49.888Z,41.3
2018-12-02T18:24:44.912Z,49.07
2018-12-02T18:30:39.908Z,54.91
2018-12-02T18:36:34.917Z,64.3
2018-12-02T18:42:29.932Z,60.6
2018-12-02T18:48:24.952Z,63.13
2018-12-02T18:54:19.924Z,63.39
2018-12-02T19:00:14.994Z,61.68
2018-12-02T19:06:09.918Z,59.5
2018-12-02T19:12:04.945Z,57.09
2018-12-02T19:17:59.968Z,55.66
2018-12-02T19:23:54.935Z,60.55
2018-12-02T19:29:49.972Z,61.04
2018-12-02T19:35:44.996Z,66.8
2018-12-02T19:41:39.976Z,66.03
2018-12-02T19:47:34.969Z,62.24
2018-12-02T19:53:29.954Z,71.39
2018-12-02T19:59:24.991Z,77.86
2018-12-02T20:05:19.985Z,70.34
2018-12-02T20:11:14.958Z,74.87
2018-12-02T20:17:09.997Z,83.17
2018-12-02T20:23:04.994Z,86.78
2018-12-02T20:29:00.037Z,81.01
2018-12-02T20:34:54.994Z,82.08
2018-12-02T20:40:49.983Z,81.89
2018-12-02T20:46:45.039Z,85.52
2018-12-02T20:52:39.994Z,82.52
2018-12-02T20:58:35.015Z,83.97
2018-12-02T21:04:30.040Z,81.35
2018-12-02T21:10:25.064Z,88.95
2018-12-02T21:16:20.016Z,78.41
2018-12-02T21:22:15.104Z,85.38
2018-12-02T21:28:10.018Z,88.62
2018-12-02T21:34:05.022Z,80.31
2018-12-02T21:40:00.081Z,87.8
2018-12-02T21:45:55.032Z,88.79
2018-12-02T21:51:50.038Z,86.24
2018-12-02T21:57:45.037Z,72.56
2018-12-02T22:03:40.044Z,66.44
2018-12-02T22:09:35.049Z,65.97
2018-12-02T22:15:30.033Z,68.34
2018-12-02T22:21:25.067Z,67.17
2018-12-02T22:27:20.062Z,69.4
2018-12-02T22:33:15.096Z,64.42
2018-12-02T22:39:10.058Z,63.78
2018-12-02T22:45:05.080Z,66.04
2018-12-02T22:51:00.077Z,66
2018-12-02T22:56:55.066Z,66.68
2018-12-02T23:02:50.066Z,64.37
2018-12-02T23:08:45.102Z,63.36
2018-12-02T23:14:40.096Z,58.05
2018-12-02T23:20:35.084Z,58.58
2018-12-02T23:26:30.083Z,57.52
2018-12-02T23:32:25.082Z,54.57
2018-12-02T23:38:20.087Z,57.41
2018-12-02T23:44:15.115Z,58.68
2018-12-02T23:50:10.112Z,60.77
2018-12-02T23:56:05.116Z,57.96
